createdAt,value
2018-03-02T00:00:46.864Z,23.67
2018-03-02T00:02:53.036Z,760.70
2018-03-02T00:05:01.275Z,402.30
2018-03-02T00:07:07.200Z,750.20
2018-03-02T00:09:11.917Z,699.97
2018-03-02T00:11:18.344Z,648.60
2018-03-02T00:13:24.493Z,284.43
2018-03-02T00:15:30.982Z,90.30
2018-03-02T00:17:37.183Z,40.83
2018-03-02T00:19:42.545Z,32.10
2018-03-02T00:21:48.641Z,232.97
2018-03-02T00:23:54.756Z,180.60
2018-03-02T00:26:01.849Z,41.23
2018-03-02T00:28:07.761Z,30.70
2018-03-02T00:30:14.183Z,25.63
2018-03-02T00:32:20.004Z,27.07
2018-03-02T00:34:25.664Z,25.17
2018-03-02T00:36:43.907Z,22.57
2018-03-02T00:38:49.683Z,28.00
2018-03-02T00:40:55.168Z,207.03
2018-03-02T00:43:01.617Z,455.07
2018-03-02T00:45:08.032Z,168.63
2018-03-02T00:47:13.952Z,322.57
2018-03-02T00:49:19.807Z,700.97
2018-03-02T00:51:26.210Z,590.60
2018-03-02T00:53:31.999Z,88.60
2018-03-02T00:55:38.167Z,49.97
2018-03-02T00:57:44.572Z,38.70
2018-03-02T00:59:50.739Z,34.10
2018-03-02T01:01:56.935Z,32.53
2018-03-02T01:04:02.883Z,30.93
2018-03-02T01:06:09.297Z,29.40
2018-03-02T01:08:16.113Z,28.33
2018-03-02T01:10:22.642Z,27.10
2018-03-02T01:12:30.068Z,26.10
2018-03-02T01:14:38.679Z,27.10
2018-03-02T01:16:46.297Z,26.07
2018-03-02T01:18:51.800Z,24.30
2018-03-02T01:20:58.833Z,24.90
2018-03-02T01:23:04.903Z,24.80
2018-03-02T01:25:11.300Z,24.60
2018-03-02T01:27:17.207Z,24.23
2018-03-02T01:29:23.314Z,24.97
2018-03-02T01:31:29.395Z,25.33
2018-03-02T01:33:36.135Z,25.50
2018-03-02T01:35:42.903Z,25.27
2018-03-02T01:37:49.094Z,25.77
2018-03-02T01:39:55.178Z,25.50
2018-03-02T01:42:02.463Z,23.80
2018-03-02T01:44:08.610Z,25.87
2018-03-02T01:46:14.842Z,24.93
2018-03-02T01:48:20.736Z,25.43
2018-03-02T01:50:26.841Z,26.50
2018-03-02T01:52:33.376Z,24.80
2018-03-02T01:54:39.396Z,26.00
2018-03-02T01:56:46.118Z,25.67
2018-03-02T01:58:53.001Z,26.40
2018-03-02T02:01:00.086Z,25.33
2018-03-02T02:03:06.604Z,25.73
2018-03-02T02:05:12.611Z,25.23
2018-03-02T02:07:18.609Z,25.80
2018-03-02T02:09:25.120Z,26.10
2018-03-02T02:11:33.206Z,25.60
2018-03-02T02:13:39.312Z,25.30
2018-03-02T02:15:45.295Z,24.77
2018-03-02T02:17:51.393Z,24.17
2018-03-02T02:19:57.552Z,25.40
2018-03-02T02:22:06.444Z,26.63
2018-03-02T02:24:12.832Z,26.80
2018-03-02T02:26:23.540Z,25.07
2018-03-02T02:28:29.508Z,25.90
2018-03-02T02:30:35.848Z,25.20
2018-03-02T02:32:41.923Z,26.10
2018-03-02T02:34:48.331Z,25.17
2018-03-02T02:36:54.166Z,24.77
2018-03-02T02:39:00.732Z,25.30
2018-03-02T02:41:07.081Z,25.60
2018-03-02T02:43:12.908Z,27.80
2018-03-02T02:45:18.867Z,25.77
2018-03-02T02:47:24.578Z,26.70
2018-03-02T02:49:30.875Z,25.90
2018-03-02T02:51:36.819Z,25.57
2018-03-02T02:53:42.924Z,25.43
2018-03-02T02:55:48.718Z,26.43
2018-03-02T02:57:54.824Z,25.57
2018-03-02T03:00:02.687Z,26.97
2018-03-02T03:02:08.724Z,26.00
2018-03-02T03:04:14.862Z,25.90
2018-03-02T03:08:30.708Z,26.63
2018-03-02T03:10:35.993Z,26.53
2018-03-02T03:12:42.200Z,26.00
2018-03-02T03:14:47.763Z,25.03
2018-03-02T03:16:53.649Z,26.43
2018-03-02T03:18:59.355Z,25.57
2018-03-02T03:21:05.576Z,27.27
2018-03-02T03:23:11.589Z,25.27
2018-03-02T03:25:16.790Z,28.73
2018-03-02T03:27:23.157Z,25.93
2018-03-02T03:29:29.041Z,25.27
2018-03-02T03:31:35.000Z,25.43
2018-03-02T03:33:41.327Z,26.50
2018-03-02T03:35:48.185Z,26.50
2018-03-02T03:37:53.544Z,25.73
2018-03-02T03:40:00.307Z,26.20
2018-03-02T03:42:05.611Z,26.20
2018-03-02T03:44:11.683Z,24.83
2018-03-02T03:46:17.396Z,26.23
2018-03-02T03:48:23.140Z,24.63
2018-03-02T03:50:29.531Z,27.37
2018-03-02T03:52:35.386Z,26.27
2018-03-02T03:54:42.694Z,25.67
2018-03-02T03:56:48.491Z,25.80
2018-03-02T03:58:54.595Z,24.80
2018-03-02T04:01:00.316Z,26.80
2018-03-02T04:03:06.877Z,26.23
2018-03-02T04:05:12.850Z,26.60
2018-03-02T04:07:18.751Z,28.17
2018-03-02T04:09:24.852Z,25.93
2018-03-02T04:11:30.792Z,25.97
2018-03-02T04:13:36.941Z,27.10
2018-03-02T04:15:42.788Z,26.10
2018-03-02T04:17:48.915Z,26.60
2018-03-02T04:19:58.938Z,25.63
2018-03-02T04:22:04.355Z,26.30
2018-03-02T04:24:10.452Z,26.90
2018-03-02T04:26:16.091Z,27.00
2018-03-02T04:28:27.924Z,25.77
2018-03-02T04:30:34.308Z,25.63
2018-03-02T04:32:40.693Z,26.83
2018-03-02T04:34:46.991Z,25.23
2018-03-02T04:36:53.040Z,24.17
2018-03-02T04:39:01.056Z,24.47
2018-03-02T04:41:06.875Z,25.53
2018-03-02T04:43:12.787Z,24.17
2018-03-02T04:45:19.177Z,25.37
2018-03-02T04:47:25.827Z,24.83
2018-03-02T04:49:31.728Z,23.87
2018-03-02T04:51:37.654Z,24.37
2018-03-02T04:53:44.137Z,24.30
2018-03-02T04:55:50.561Z,23.40
2018-03-02T04:57:56.137Z,25.17
2018-03-02T05:00:03.424Z,24.10
2018-03-02T05:02:09.028Z,25.87
2018-03-02T05:04:14.832Z,25.57
2018-03-02T05:06:20.665Z,25.80
2018-03-02T05:08:25.883Z,25.20
2018-03-02T05:10:31.553Z,25.63
2018-03-02T05:12:36.928Z,28.20
2018-03-02T05:14:49.674Z,27.13
2018-03-02T05:16:55.884Z,26.80
2018-03-02T05:19:01.819Z,27.40
2018-03-02T05:21:07.703Z,26.53
2018-03-02T05:23:13.926Z,28.07
2018-03-02T05:25:19.308Z,26.40
2018-03-02T05:27:24.978Z,27.07
2018-03-02T05:29:30.819Z,27.17
2018-03-02T05:31:36.980Z,27.10
2018-03-02T05:33:43.040Z,27.20
2018-03-02T05:35:49.556Z,27.00
2018-03-02T05:37:55.619Z,27.53
2018-03-02T05:40:02.179Z,29.40
2018-03-02T05:42:07.867Z,28.73
2018-03-02T05:44:13.804Z,27.73
2018-03-02T05:46:24.333Z,28.20
2018-03-02T05:48:33.300Z,26.67
2018-03-02T05:50:39.381Z,27.50
2018-03-02T05:52:45.822Z,28.00
2018-03-02T05:55:01.957Z,28.30
2018-03-02T05:57:07.813Z,27.93
2018-03-02T05:59:13.108Z,28.20
2018-03-02T06:01:19.368Z,27.27
2018-03-02T06:03:24.640Z,27.90
2018-03-02T06:05:30.294Z,28.97
2018-03-02T06:07:35.716Z,28.00
2018-03-02T06:09:42.680Z,29.27
2018-03-02T06:11:48.164Z,28.47
2018-03-02T06:13:54.183Z,28.80
2018-03-02T06:16:00.155Z,28.70
2018-03-02T06:18:05.893Z,30.37
2018-03-02T06:20:11.236Z,29.70
2018-03-02T06:22:17.599Z,29.67
2018-03-02T06:24:24.333Z,30.20
2018-03-02T06:26:29.671Z,30.50
2018-03-02T06:28:35.015Z,31.67
2018-03-02T06:30:40.638Z,33.53
2018-03-02T06:32:46.514Z,32.60
2018-03-02T06:34:52.162Z,33.53
2018-03-02T06:36:59.345Z,32.20
2018-03-02T06:39:05.271Z,33.60
2018-03-02T06:41:10.827Z,35.00
2018-03-02T06:43:17.677Z,36.20
2018-03-02T06:45:23.387Z,35.97
2018-03-02T06:47:28.614Z,34.37
2018-03-02T06:49:35.190Z,698.03
2018-03-02T06:51:40.910Z,985.73
2018-03-02T06:53:46.291Z,679.27
2018-03-02T06:55:51.625Z,768.43
2018-03-02T06:57:57.745Z,783.40
2018-03-02T07:00:03.385Z,718.30
2018-03-02T07:02:09.839Z,788.40
2018-03-02T07:04:15.889Z,838.97
2018-03-02T07:06:22.305Z,723.03
2018-03-02T07:08:28.464Z,963.77
2018-03-02T07:10:33.833Z,774.43
2018-03-02T07:12:39.521Z,875.47
2018-03-02T07:14:44.860Z,999.90
2018-03-02T07:16:50.182Z,999.90
2018-03-02T07:18:55.923Z,932.73
2018-03-02T07:21:02.395Z,754.67
2018-03-02T07:23:08.340Z,636.97
2018-03-02T07:25:14.657Z,841.87
2018-03-02T07:27:20.869Z,621.37
2018-03-02T07:29:26.948Z,415.90
2018-03-02T07:31:33.754Z,256.17
2018-03-02T07:33:40.064Z,146.43
2018-03-02T07:35:45.631Z,111.40
2018-03-02T07:37:51.719Z,79.37
2018-03-02T07:39:58.791Z,62.37
2018-03-02T07:42:04.816Z,54.13
2018-03-02T07:44:10.763Z,54.40
2018-03-02T07:46:16.177Z,980.57
2018-03-02T07:48:21.994Z,999.90
2018-03-02T07:50:28.082Z,908.67
2018-03-02T07:52:34.429Z,975.80
2018-03-02T07:54:40.453Z,934.60
2018-03-02T07:56:46.397Z,884.57
2018-03-02T07:58:51.714Z,742.20
2018-03-02T08:00:58.096Z,577.40
2018-03-02T08:03:03.793Z,432.93
2018-03-02T08:05:09.080Z,335.17
2018-03-02T08:07:14.903Z,944.83
2018-03-02T08:09:26.634Z,999.90
2018-03-02T08:11:34.260Z,926.00
2018-03-02T08:13:40.441Z,990.17
2018-03-02T08:15:46.921Z,988.37
2018-03-02T08:17:52.240Z,999.90
2018-03-02T08:19:58.225Z,884.30
2018-03-02T08:22:06.167Z,970.80
2018-03-02T08:24:11.538Z,999.90
2018-03-02T08:26:16.836Z,999.90
2018-03-02T08:28:22.379Z,999.90
2018-03-02T08:30:27.906Z,999.90
2018-03-02T08:32:33.176Z,934.67
2018-03-02T08:34:38.850Z,821.20
2018-03-02T08:36:44.140Z,723.93
2018-03-02T08:38:49.571Z,608.00
2018-03-02T08:40:55.900Z,695.43
2018-03-02T08:43:01.225Z,681.80
2018-03-02T08:45:06.629Z,522.90
2018-03-02T08:47:12.235Z,395.17
2018-03-02T08:49:18.387Z,292.33
2018-03-02T08:51:23.704Z,208.83
2018-03-02T08:53:30.449Z,136.70
2018-03-02T08:57:45.257Z,434.10
2018-03-02T08:59:50.604Z,260.90
2018-03-02T09:01:56.173Z,552.10
2018-03-02T09:04:02.816Z,208.17
2018-03-02T09:06:08.090Z,131.70
2018-03-02T09:08:13.661Z,81.90
2018-03-02T09:10:18.918Z,65.37
2018-03-02T09:12:24.275Z,57.07
2018-03-02T09:14:30.120Z,53.60
2018-03-02T09:16:35.357Z,925.80
2018-03-02T09:18:40.783Z,372.50
2018-03-02T09:20:46.591Z,999.90
2018-03-02T09:22:51.926Z,494.20
2018-03-02T09:24:57.199Z,306.57
2018-03-02T09:27:06.639Z,172.73
2018-03-02T09:29:11.876Z,852.37
2018-03-02T09:31:17.624Z,999.90
2018-03-02T09:33:23.234Z,970.57
2018-03-02T09:35:28.822Z,777.70
2018-03-02T09:37:34.091Z,944.57
2018-03-02T09:39:39.692Z,999.90
2018-03-02T09:41:45.460Z,918.03
2018-03-02T09:43:51.316Z,455.67
2018-03-02T09:45:56.736Z,692.00
2018-03-02T09:48:03.145Z,999.90
2018-03-02T09:50:08.464Z,827.23
2018-03-02T09:52:13.740Z,578.50
2018-03-02T09:54:19.872Z,416.77
2018-03-02T09:56:25.174Z,316.27
2018-03-02T09:58:30.960Z,878.47
2018-03-02T10:00:36.592Z,917.73
2018-03-02T10:02:45.294Z,513.77
2018-03-02T10:04:52.436Z,327.37
2018-03-02T10:06:58.199Z,445.80
2018-03-02T10:09:04.390Z,298.97
2018-03-02T10:11:09.791Z,205.13
2018-03-02T10:13:15.526Z,132.73
2018-03-02T10:15:20.768Z,104.97
2018-03-02T10:17:26.968Z,79.20
2018-03-02T10:19:34.504Z,66.07
2018-03-02T10:21:40.014Z,60.30
2018-03-02T10:23:45.401Z,52.87
2018-03-02T10:25:51.271Z,50.80
2018-03-02T10:27:57.403Z,49.77
2018-03-02T10:30:04.341Z,45.80
2018-03-02T10:32:09.937Z,43.43
2018-03-02T10:34:15.725Z,40.53
2018-03-02T10:36:21.254Z,41.90
2018-03-02T10:38:26.810Z,41.70
2018-03-02T10:40:32.111Z,944.17
2018-03-02T10:42:37.347Z,563.70
2018-03-02T10:44:43.020Z,999.90
2018-03-02T10:46:48.997Z,527.87
2018-03-02T10:48:54.694Z,999.90
2018-03-02T10:53:10.276Z,683.00
2018-03-02T10:55:15.613Z,999.90
2018-03-02T10:57:21.219Z,817.13
2018-03-02T10:59:26.547Z,633.27
2018-03-02T11:01:32.216Z,625.03
2018-03-02T11:03:39.961Z,999.90
2018-03-02T11:05:46.676Z,530.63
2018-03-02T11:07:52.616Z,951.70
2018-03-02T11:09:57.957Z,999.90
2018-03-02T11:12:04.897Z,999.90
2018-03-02T11:14:10.513Z,633.70
2018-03-02T11:18:25.839Z,691.23
2018-03-02T11:20:31.864Z,622.07
2018-03-02T11:22:37.471Z,366.50
2018-03-02T11:24:42.861Z,159.17
2018-03-02T11:26:48.300Z,112.57
2018-03-02T11:28:54.167Z,88.00
2018-03-02T11:31:00.417Z,66.83
2018-03-02T11:33:05.793Z,62.83
2018-03-02T11:35:17.704Z,59.27
2018-03-02T11:37:28.827Z,133.17
2018-03-02T11:39:34.318Z,775.83
2018-03-02T11:41:39.898Z,880.70
2018-03-02T11:43:45.272Z,849.70
2018-03-02T11:45:50.600Z,981.10
2018-03-02T11:47:56.293Z,895.40
2018-03-02T11:50:01.700Z,373.63
2018-03-02T11:52:06.944Z,211.57
2018-03-02T11:54:13.167Z,146.83
2018-03-02T11:56:18.458Z,107.47
2018-03-02T11:58:23.802Z,606.43
2018-03-02T12:00:29.399Z,211.80
2018-03-02T12:02:34.906Z,565.70
2018-03-02T12:04:40.404Z,150.63
2018-03-02T12:06:45.973Z,91.87
2018-03-02T12:08:51.593Z,73.23
2018-03-02T12:10:57.704Z,66.23
2018-03-02T12:13:03.199Z,60.77
2018-03-02T12:15:08.760Z,61.00
2018-03-02T12:17:14.443Z,56.30
2018-03-02T12:19:20.321Z,223.27
2018-03-02T12:21:25.947Z,660.00
2018-03-02T12:23:31.280Z,368.53
2018-03-02T12:25:36.611Z,679.97
2018-03-02T12:27:42.160Z,557.90
2018-03-02T12:29:48.424Z,816.07
2018-03-02T12:31:53.841Z,901.37
2018-03-02T12:34:01.312Z,694.23
2018-03-02T12:36:06.591Z,827.60
2018-03-02T12:38:12.621Z,619.17
2018-03-02T12:40:18.309Z,685.20
2018-03-02T12:42:24.744Z,480.33
2018-03-02T12:44:30.172Z,597.33
2018-03-02T12:46:36.340Z,390.23
2018-03-02T12:48:44.768Z,740.20
2018-03-02T12:50:52.018Z,567.40
2018-03-02T12:52:57.737Z,416.17
2018-03-02T12:55:03.019Z,298.10
2018-03-02T12:57:08.348Z,366.80
2018-03-02T12:59:14.744Z,567.93
2018-03-02T13:01:20.231Z,326.93
2018-03-02T13:03:25.669Z,389.30
2018-03-02T13:05:31.359Z,405.23
2018-03-02T13:07:36.724Z,999.90
2018-03-02T13:09:42.302Z,543.00
2018-03-02T13:11:47.972Z,477.80
2018-03-02T13:13:53.323Z,999.90
2018-03-02T13:15:58.535Z,469.30
2018-03-02T13:18:04.046Z,634.23
2018-03-02T13:20:13.758Z,485.47
2018-03-02T13:22:28.033Z,636.10
2018-03-02T13:24:33.645Z,537.93
2018-03-02T13:26:47.364Z,221.73
2018-03-02T13:28:54.047Z,145.57
2018-03-02T13:31:01.300Z,246.03
2018-03-02T13:33:15.137Z,318.17
2018-03-02T13:35:20.477Z,800.47
2018-03-02T13:37:26.113Z,266.97
2018-03-02T13:39:40.016Z,565.33
2018-03-02T13:41:55.459Z,615.83
2018-03-02T13:44:01.099Z,123.03
2018-03-02T13:46:07.453Z,88.60
2018-03-02T13:50:25.283Z,88.30
2018-03-02T13:52:30.944Z,64.30
2018-03-02T13:54:36.271Z,573.93
2018-03-02T13:56:50.392Z,702.87
2018-03-02T13:58:55.982Z,223.33
2018-03-02T14:01:01.435Z,101.97
2018-03-02T14:05:18.085Z,535.73
2018-03-02T14:07:23.505Z,80.57
2018-03-02T14:09:29.521Z,261.60
2018-03-02T14:11:34.858Z,104.33
2018-03-02T14:13:40.283Z,296.17
2018-03-02T14:15:46.202Z,999.90
2018-03-02T14:17:51.711Z,267.43
2018-03-02T14:19:57.092Z,402.03
2018-03-02T14:22:04.791Z,181.30
2018-03-02T14:24:10.278Z,123.37
2018-03-02T14:26:16.188Z,103.27
2018-03-02T14:28:22.328Z,82.90
2018-03-02T14:30:28.428Z,72.27
2018-03-02T14:32:34.471Z,65.40
2018-03-02T14:34:43.152Z,58.00
2018-03-02T14:36:48.913Z,909.93
2018-03-02T14:38:54.435Z,891.37
2018-03-02T14:41:00.241Z,750.90
2018-03-02T14:43:06.472Z,959.63
2018-03-02T14:45:12.351Z,998.70
2018-03-02T14:47:18.099Z,999.90
2018-03-02T14:49:23.404Z,783.13
2018-03-02T14:51:28.828Z,449.67
2018-03-02T14:53:34.407Z,330.73
2018-03-02T14:55:39.762Z,213.57
2018-03-02T15:00:01.351Z,181.70
2018-03-02T15:02:06.710Z,598.60
2018-03-02T15:04:12.169Z,536.13
2018-03-02T15:06:18.438Z,419.77
2018-03-02T15:08:23.800Z,920.13
2018-03-02T15:10:29.485Z,676.83
2018-03-02T15:12:35.801Z,286.30
2018-03-02T15:14:41.475Z,220.00
2018-03-02T15:16:46.924Z,161.77
2018-03-02T15:18:53.455Z,121.13
2018-03-02T15:20:59.890Z,95.90
2018-03-02T15:23:05.436Z,81.77
2018-03-02T15:25:12.150Z,74.70
2018-03-02T15:27:17.472Z,73.90
2018-03-02T15:29:22.848Z,70.40
2018-03-02T15:31:29.355Z,68.60
2018-03-02T15:33:34.684Z,64.47
2018-03-02T15:35:40.096Z,64.70
2018-03-02T15:37:45.920Z,63.97
2018-03-02T15:41:15.268Z,61.60
2018-03-02T15:43:21.284Z,57.70
2018-03-02T15:45:27.211Z,62.27
2018-03-02T15:47:33.528Z,58.50
2018-03-02T15:49:40.056Z,59.97
2018-03-02T15:51:45.383Z,59.03
2018-03-02T15:53:50.764Z,379.47
2018-03-02T15:55:57.251Z,467.30
2018-03-02T15:58:03.644Z,227.47
2018-03-02T16:00:09.010Z,146.00
2018-03-02T16:02:14.704Z,94.53
2018-03-02T16:04:20.306Z,698.67
2018-03-02T16:06:25.703Z,122.47
2018-03-02T16:08:31.297Z,106.47
2018-03-02T16:10:36.656Z,95.40
2018-03-02T16:12:42.190Z,79.63
2018-03-02T16:14:47.878Z,999.90
2018-03-02T16:16:53.218Z,306.87
2018-03-02T16:18:59.703Z,929.87
2018-03-02T16:21:05.617Z,718.63
2018-03-02T16:23:12.602Z,977.20
2018-03-02T16:51:38.412Z,100.57
2018-03-02T16:53:44.207Z,86.60
2018-03-02T16:55:50.473Z,76.50
2018-03-02T16:57:56.120Z,70.47
2018-03-02T17:00:01.520Z,67.40
2018-03-02T17:02:07.724Z,62.03
2018-03-02T17:04:13.354Z,66.23
2018-03-02T17:06:18.756Z,59.73
2018-03-02T17:08:24.121Z,61.70
2018-03-02T17:10:29.768Z,56.30
2018-03-02T17:12:35.121Z,57.67
2018-03-02T17:14:40.735Z,58.43
2018-03-02T17:16:47.258Z,55.93
2018-03-02T17:18:52.505Z,55.73
2018-03-02T17:20:59.309Z,56.73
2018-03-02T17:23:05.311Z,55.43
2018-03-02T17:25:10.696Z,56.70
2018-03-02T17:27:16.023Z,52.83
2018-03-02T17:29:21.700Z,55.83
2018-03-02T17:31:28.052Z,54.43
2018-03-02T17:33:33.327Z,54.83
2018-03-02T17:35:39.039Z,52.93
2018-03-02T17:37:44.421Z,54.27
2018-03-02T17:39:50.027Z,51.50
2018-03-02T17:41:55.950Z,50.23
2018-03-02T17:44:02.467Z,51.17
2018-03-02T17:46:07.864Z,52.47
2018-03-02T17:48:13.822Z,50.17
2018-03-02T17:50:20.832Z,51.17
2018-03-02T17:52:26.298Z,52.53
2018-03-02T17:54:35.044Z,50.93
2018-03-02T17:56:40.960Z,52.07
2018-03-02T17:58:46.263Z,51.00
2018-03-02T18:00:52.070Z,52.40
2018-03-02T18:02:59.229Z,51.87
2018-03-02T18:05:04.531Z,51.20
2018-03-02T18:07:10.733Z,51.43
2018-03-02T18:09:16.016Z,49.10
2018-03-02T18:11:21.309Z,49.47
2018-03-02T18:13:26.923Z,49.70
2018-03-02T18:15:32.337Z,48.70
2018-03-02T18:17:37.866Z,51.13
2018-03-02T18:19:43.600Z,51.50
2018-03-02T18:21:48.981Z,50.80
2018-03-02T18:23:54.326Z,51.07
2018-03-02T18:26:00.118Z,52.17
2018-03-02T18:28:05.589Z,49.90
2018-03-02T18:30:10.964Z,53.77
2018-03-02T18:32:16.600Z,50.53
2018-03-02T18:34:22.492Z,51.90
2018-03-02T18:36:27.902Z,53.10
2018-03-02T18:38:35.530Z,51.60
2018-03-02T18:40:41.337Z,50.10
2018-03-02T18:42:46.672Z,50.43
2018-03-02T18:44:52.418Z,52.83
2018-03-02T18:46:57.695Z,51.70
2018-03-02T18:49:04.165Z,51.43
2018-03-02T18:51:10.005Z,51.13
2018-03-02T18:53:16.947Z,51.37
2018-03-02T18:55:28.767Z,53.57
2018-03-02T18:57:34.450Z,52.17
2018-03-02T18:59:39.816Z,51.10
2018-03-02T19:01:45.255Z,50.97
2018-03-02T19:03:50.898Z,51.67
2018-03-02T19:05:56.919Z,50.70
2018-03-02T19:08:07.334Z,50.70
2018-03-02T19:10:13.505Z,50.23
2018-03-02T19:12:19.621Z,50.97
2018-03-02T19:14:25.531Z,51.37
2018-03-02T19:16:31.646Z,50.70
2018-03-02T19:18:37.208Z,51.33
2018-03-02T19:20:43.030Z,51.63
2018-03-02T19:22:49.856Z,51.43
2018-03-02T19:24:55.263Z,49.80
2018-03-02T19:27:02.457Z,50.07
2018-03-02T19:29:08.229Z,49.57
2018-03-02T19:31:13.825Z,49.00
2018-03-02T19:33:21.742Z,51.40
2018-03-02T19:35:27.589Z,50.70
2018-03-02T19:37:32.881Z,49.53
2018-03-02T19:39:39.155Z,49.30
2018-03-02T19:41:46.257Z,47.63
2018-03-02T19:43:52.958Z,50.33
2018-03-02T19:46:00.326Z,51.10
2018-03-02T19:48:06.280Z,50.00
2018-03-02T19:50:12.551Z,46.97
2018-03-02T19:52:18.687Z,47.97
2018-03-02T19:54:25.523Z,48.47
2018-03-02T19:56:31.482Z,48.40
2018-03-02T19:58:38.269Z,49.00
2018-03-02T20:00:45.364Z,50.57
2018-03-02T20:02:51.544Z,50.20
2018-03-02T20:04:59.359Z,48.57
2018-03-02T20:07:06.806Z,49.43
2018-03-02T20:09:13.421Z,49.57
2018-03-02T20:11:20.413Z,51.30
2018-03-02T20:13:26.097Z,51.43
2018-03-02T20:15:31.524Z,50.73
2018-03-02T20:17:37.332Z,50.20
2018-03-02T20:19:43.802Z,50.10
2018-03-02T20:21:49.350Z,50.03
2018-03-02T20:23:55.543Z,50.80
2018-03-02T20:26:02.357Z,51.63
2018-03-02T20:28:08.014Z,52.73
2018-03-02T20:30:14.687Z,49.70
2018-03-02T20:32:22.265Z,50.47
2018-03-02T20:34:36.257Z,50.20
2018-03-02T20:36:42.300Z,49.93
2018-03-02T20:38:47.958Z,50.80
2018-03-02T20:40:54.496Z,50.63
2018-03-02T20:43:01.909Z,47.73
2018-03-02T20:45:12.603Z,48.30
2018-03-02T20:47:18.310Z,49.63
2018-03-02T20:49:23.729Z,52.10
2018-03-02T20:51:29.558Z,49.80
2018-03-02T20:53:34.912Z,50.13
2018-03-02T20:55:41.068Z,48.93
2018-03-02T20:57:46.941Z,50.70
2018-03-02T20:59:52.495Z,48.47
2018-03-02T21:01:58.360Z,46.97
2018-03-02T21:04:05.070Z,51.33
2018-03-02T21:06:11.079Z,47.03
2018-03-02T21:08:36.076Z,48.17
2018-03-02T21:10:41.628Z,46.10
2018-03-02T21:12:47.095Z,47.40
2018-03-02T21:14:52.845Z,48.00
2018-03-02T21:16:59.091Z,46.63
2018-03-02T21:19:04.566Z,45.80
2018-03-02T21:21:09.800Z,47.40
2018-03-02T21:23:17.510Z,48.30
2018-03-02T21:25:22.911Z,45.60
2018-03-02T21:27:28.372Z,47.20
2018-03-02T21:29:33.998Z,47.67
2018-03-02T21:31:40.104Z,46.50
2018-03-02T21:33:45.518Z,47.63
2018-03-02T21:35:51.434Z,48.27
2018-03-02T21:37:56.743Z,45.73
2018-03-02T21:40:03.797Z,47.87
2018-03-02T21:42:09.540Z,44.77
2018-03-02T21:44:14.873Z,45.40
2018-03-02T21:46:20.285Z,46.07
2018-03-02T21:48:25.833Z,45.40
2018-03-02T21:50:31.179Z,43.60
2018-03-02T21:52:36.711Z,44.57
2018-03-02T21:54:42.904Z,44.47
2018-03-02T21:56:48.330Z,42.20
2018-03-02T21:58:54.377Z,42.40
2018-03-02T22:01:01.189Z,42.43
2018-03-02T22:03:07.914Z,42.93
2018-03-02T22:05:13.296Z,43.80
2018-03-02T22:07:18.947Z,44.60
2018-03-02T22:09:24.222Z,42.40
2018-03-02T22:11:29.485Z,43.43
2018-03-02T22:13:35.106Z,43.50
2018-03-02T22:15:40.306Z,41.27
2018-03-02T22:17:45.630Z,43.83
2018-03-02T22:19:51.148Z,43.57
2018-03-02T22:21:56.448Z,43.67
2018-03-02T22:24:02.152Z,44.13
2018-03-02T22:26:07.733Z,43.23
2018-03-02T22:28:13.018Z,43.77
2018-03-02T22:30:18.336Z,43.63
2018-03-02T22:32:23.823Z,46.60
2018-03-02T22:34:29.132Z,44.00
2018-03-02T22:36:34.392Z,42.83
2018-03-02T22:38:40.463Z,45.80
2018-03-02T22:40:45.766Z,45.20
2018-03-02T22:42:52.111Z,43.30
2018-03-02T22:44:57.696Z,43.30
2018-03-02T22:47:04.884Z,43.07
2018-03-02T22:49:10.974Z,42.23
2018-03-02T22:51:16.505Z,43.00
2018-03-02T22:53:21.844Z,44.80
2018-03-02T22:55:27.785Z,44.93
2018-03-02T22:57:33.764Z,44.00
2018-03-02T22:59:39.008Z,43.37
2018-03-02T23:01:44.432Z,42.67
2018-03-02T23:03:50.111Z,44.17
2018-03-02T23:05:55.456Z,44.40
2018-03-02T23:08:02.569Z,44.57
2018-03-02T23:10:08.152Z,42.73
2018-03-02T23:12:13.408Z,45.50
2018-03-02T23:14:18.752Z,45.20
2018-03-02T23:16:25.110Z,43.83
2018-03-02T23:18:30.980Z,44.97
2018-03-02T23:20:37.363Z,43.83
2018-03-02T23:22:44.005Z,43.07
2018-03-02T23:24:50.864Z,43.33
2018-03-02T23:27:01.308Z,44.80
2018-03-02T23:29:07.408Z,43.47
2018-03-02T23:31:12.727Z,43.80
2018-03-02T23:33:18.055Z,43.77
2018-03-02T23:35:23.704Z,43.53
2018-03-02T23:37:30.212Z,41.00
2018-03-02T23:39:39.312Z,43.13
2018-03-02T23:41:45.633Z,46.10
2018-03-02T23:43:56.241Z,47.40
2018-03-02T23:46:05.955Z,44.70
2018-03-02T23:48:42.970Z,45.37
2018-03-02T23:50:48.986Z,46.60
2018-03-02T23:55:05.924Z,45.97
2018-03-02T23:57:11.492Z,46.07
2018-03-02T23:59:16.997Z,44.43
